createdAt,value
2022-11-04T00:02:05.498Z,94.93
2022-11-04T00:04:31.951Z,95.20
2022-11-04T00:06:58.437Z,95.02
2022-11-04T00:09:28.331Z,95.28
2022-11-04T00:12:15.633Z,95.18
2022-11-04T00:14:42.244Z,94.91
2022-11-04T00:17:22.036Z,94.80
2022-11-04T00:20:09.096Z,94.76
2022-11-04T00:22:55.483Z,94.79
2022-11-04T00:28:33.870Z,94.18
2022-11-04T00:31:22.277Z,93.98
2022-11-04T00:33:50.027Z,93.67
2022-11-04T00:36:16.836Z,93.75
2022-11-04T00:38:43.225Z,92.88
2022-11-04T00:41:28.319Z,92.79
2022-11-04T00:44:02.730Z,92.76
2022-11-04T00:46:31.003Z,92.84
2022-11-04T00:48:57.443Z,92.75
2022-11-04T00:51:24.276Z,92.73
2022-11-04T00:53:51.497Z,92.63
2022-11-04T00:56:17.994Z,92.67
2022-11-04T00:58:44.528Z,92.63
2022-11-04T01:01:13.615Z,92.55
2022-11-04T01:03:40.127Z,92.51
2022-11-04T01:06:06.734Z,92.44
2022-11-04T01:08:33.167Z,92.48
2022-11-04T01:11:05.027Z,92.47
2022-11-04T01:13:31.885Z,92.41
2022-11-04T01:15:59.942Z,92.43
2022-11-04T01:18:26.593Z,92.41
2022-11-04T01:20:53.334Z,92.43
2022-11-04T01:23:19.700Z,92.43
2022-11-04T01:25:46.416Z,92.50
2022-11-04T01:28:12.893Z,92.53
2022-11-04T01:30:39.281Z,92.24
2022-11-04T01:33:05.761Z,92.60
2022-11-04T01:35:32.373Z,92.31
2022-11-04T01:37:59.076Z,92.52
2022-11-04T01:40:25.521Z,92.22
2022-11-04T01:42:51.884Z,92.13
2022-11-04T01:45:21.126Z,92.26
2022-11-04T01:48:01.388Z,92.21
2022-11-04T01:50:30.457Z,92.46
2022-11-04T01:53:16.431Z,92.45
2022-11-04T01:55:52.451Z,92.14
2022-11-04T01:58:21.916Z,92.09
2022-11-04T02:00:48.627Z,92.33
2022-11-04T02:03:17.184Z,92.15
2022-11-04T02:05:43.954Z,91.86
2022-11-04T02:08:11.716Z,92.16
2022-11-04T02:10:41.620Z,92.16
2022-11-04T02:13:08.372Z,91.72
2022-11-04T02:16:24.102Z,92.19
2022-11-04T02:19:40.788Z,91.88
2022-11-04T02:22:36.602Z,92.21
2022-11-04T02:25:02.941Z,92.08
2022-11-04T02:28:06.818Z,91.75
2022-11-04T02:30:45.906Z,92.11
2022-11-04T02:33:54.035Z,92.28
2022-11-04T02:36:37.072Z,92.17
2022-11-04T02:39:17.063Z,92.66
2022-11-04T02:42:09.327Z,92.64
2022-11-04T02:44:43.021Z,93.25
2022-11-04T02:47:15.640Z,93.28
2022-11-04T02:49:54.698Z,93.53
2022-11-04T02:52:39.564Z,94.15
2022-11-04T02:55:18.584Z,94.53
2022-11-04T02:57:48.432Z,94.71
2022-11-04T03:00:15.539Z,94.77
2022-11-04T03:02:53.516Z,94.55
2022-11-04T03:05:28.148Z,94.56
2022-11-04T03:07:59.141Z,94.80
2022-11-04T03:10:33.619Z,94.89
2022-11-04T03:13:20.327Z,94.74
2022-11-04T03:15:51.740Z,94.43
2022-11-04T03:18:32.819Z,93.51
2022-11-04T03:21:02.812Z,92.26
2022-11-04T03:23:29.706Z,91.66
2022-11-04T03:26:07.435Z,92.45
2022-11-04T03:29:00.938Z,92.49
2022-11-04T03:31:40.322Z,92.68
2022-11-04T03:34:06.828Z,92.82
2022-11-04T03:36:33.170Z,92.89
2022-11-04T03:38:59.627Z,92.69
2022-11-04T03:41:37.656Z,92.88
2022-11-04T03:44:04.212Z,92.28
2022-11-04T03:46:30.882Z,92.50
2022-11-04T03:48:59.082Z,92.16
2022-11-04T03:51:26.192Z,92.43
2022-11-04T03:53:52.961Z,91.93
2022-11-04T03:56:56.065Z,92.11
2022-11-04T03:59:53.551Z,92.11
2022-11-04T04:02:54.061Z,92.26
2022-11-04T04:05:30.729Z,92.17
2022-11-04T04:08:06.704Z,92.11
2022-11-04T04:10:48.827Z,92.09
2022-11-04T04:13:21.035Z,91.94
2022-11-04T04:16:00.986Z,92.26
2022-11-04T04:18:42.627Z,91.81
2022-11-04T04:21:14.085Z,91.78
2022-11-04T04:24:01.225Z,91.89
2022-11-04T04:26:48.654Z,91.43
2022-11-04T04:29:17.557Z,91.35
2022-11-04T04:31:50.233Z,91.05
2022-11-04T04:34:22.674Z,90.92
2022-11-04T04:36:58.574Z,90.19
2022-11-04T04:39:49.189Z,89.98
2022-11-04T04:42:34.049Z,89.78
2022-11-04T04:45:03.696Z,89.58
2022-11-04T04:47:43.541Z,89.60
2022-11-04T04:50:13.663Z,89.45
2022-11-04T04:52:42.999Z,89.41
2022-11-04T04:55:10.073Z,89.71
2022-11-04T04:57:36.957Z,89.16
2022-11-04T05:00:04.837Z,88.39
2022-11-04T05:02:31.302Z,88.66
2022-11-04T05:04:59.168Z,88.84
2022-11-04T05:07:25.859Z,88.80
2022-11-04T05:09:52.280Z,88.50
2022-11-04T05:12:18.939Z,88.70
2022-11-04T05:14:45.322Z,87.94
2022-11-04T05:17:11.744Z,88.57
2022-11-04T05:19:38.173Z,88.33
2022-11-04T05:22:04.815Z,88.61
2022-11-04T05:24:31.193Z,88.38
2022-11-04T05:26:57.639Z,88.83
2022-11-04T05:29:24.004Z,88.64
2022-11-04T05:31:50.454Z,88.63
2022-11-04T05:34:16.846Z,88.59
2022-11-04T05:36:43.252Z,89.03
2022-11-04T05:39:12.971Z,89.01
2022-11-04T05:41:39.475Z,88.98
2022-11-04T05:44:06.950Z,88.89
2022-11-04T05:46:33.377Z,89.07
2022-11-04T05:48:59.768Z,89.11
2022-11-04T05:51:28.630Z,89.65
2022-11-04T05:53:55.045Z,89.35
2022-11-04T05:56:21.478Z,89.27
2022-11-04T05:58:47.908Z,89.77
2022-11-04T06:01:14.423Z,89.61
2022-11-04T06:03:40.963Z,89.79
2022-11-04T06:06:07.359Z,89.86
2022-11-04T06:08:33.754Z,89.39
2022-11-04T06:11:00.141Z,90.01
2022-11-04T06:13:26.488Z,89.30
2022-11-04T06:15:52.860Z,89.81
2022-11-04T06:18:19.208Z,89.87
2022-11-04T06:20:45.572Z,90.00
2022-11-04T06:23:11.936Z,90.00
2022-11-04T06:25:38.297Z,90.11
2022-11-04T06:28:04.651Z,90.53
2022-11-04T06:30:31.052Z,90.16
2022-11-04T06:32:57.642Z,89.64
2022-11-04T06:35:24.019Z,90.22
2022-11-04T06:37:50.405Z,89.87
2022-11-04T06:40:16.910Z,89.96
2022-11-04T06:42:44.900Z,89.63
2022-11-04T06:45:11.902Z,89.82
2022-11-04T06:47:39.367Z,89.32
2022-11-04T06:50:06.084Z,89.60
2022-11-04T06:52:34.846Z,89.40
2022-11-04T06:55:03.802Z,89.21
2022-11-04T06:57:30.170Z,88.64
2022-11-04T06:59:56.682Z,88.24
2022-11-04T07:02:23.132Z,88.85
2022-11-04T07:04:49.590Z,88.53
2022-11-04T07:07:15.999Z,88.13
2022-11-04T07:09:42.407Z,88.89
2022-11-04T07:12:08.869Z,88.83
2022-11-04T07:14:35.225Z,89.36
2022-11-04T07:17:02.069Z,88.88
2022-11-04T07:19:28.408Z,89.17
2022-11-04T07:21:54.825Z,89.51
2022-11-04T07:24:21.350Z,89.31
2022-11-04T07:26:47.757Z,89.09
2022-11-04T07:29:14.334Z,89.39
2022-11-04T07:31:40.703Z,89.13
2022-11-04T07:34:07.266Z,88.85
2022-11-04T07:36:33.650Z,88.99
2022-11-04T07:39:00.896Z,89.44
2022-11-04T07:41:27.291Z,89.55
2022-11-04T07:43:54.802Z,89.77
2022-11-04T07:46:21.463Z,89.21
2022-11-04T07:48:48.239Z,89.33
2022-11-04T07:51:17.282Z,89.57
2022-11-04T07:53:44.018Z,89.45
2022-11-04T07:56:12.332Z,89.41
2022-11-04T07:58:39.332Z,89.43
2022-11-04T08:01:08.444Z,89.24
2022-11-04T08:03:35.550Z,89.15
2022-11-04T08:06:04.159Z,89.20
2022-11-04T08:08:31.062Z,89.26
2022-11-04T08:11:00.830Z,89.15
2022-11-04T08:13:29.247Z,88.49
2022-11-04T08:15:56.660Z,88.63
2022-11-04T08:18:23.574Z,88.67
2022-11-04T08:20:51.417Z,88.80
2022-11-04T08:23:18.772Z,88.51
2022-11-04T08:25:45.737Z,88.24
2022-11-04T08:28:17.224Z,87.95
2022-11-04T08:30:58.349Z,88.02
2022-11-04T08:33:26.649Z,87.82
2022-11-04T08:35:54.477Z,88.17
2022-11-04T08:38:21.177Z,88.19
2022-11-04T08:40:47.670Z,87.81
2022-11-04T08:43:14.185Z,88.19
2022-11-04T08:45:43.893Z,88.29
2022-11-04T08:48:10.691Z,88.55
2022-11-04T08:50:37.669Z,88.33
2022-11-04T08:53:04.222Z,88.63
2022-11-04T08:55:32.256Z,88.31
2022-11-04T08:57:59.768Z,88.53
2022-11-04T09:00:26.789Z,88.43
2022-11-04T09:02:53.893Z,88.42
2022-11-04T09:05:20.285Z,88.32
2022-11-04T09:07:46.735Z,88.24
2022-11-04T09:10:13.124Z,88.33
2022-11-04T09:12:39.528Z,88.75
2022-11-04T09:15:06.418Z,88.71
2022-11-04T09:17:32.779Z,88.86
2022-11-04T09:19:59.180Z,89.28
2022-11-04T09:22:25.615Z,89.09
2022-11-04T09:24:52.322Z,88.83
2022-11-04T09:27:18.847Z,88.97
2022-11-04T09:29:46.086Z,88.80
2022-11-04T09:32:12.453Z,88.72
2022-11-04T09:34:38.842Z,89.07
2022-11-04T09:37:05.202Z,89.26
2022-11-04T09:39:31.586Z,89.41
2022-11-04T09:42:19.858Z,89.05
2022-11-04T09:45:19.989Z,88.88
2022-11-04T09:47:38.903Z,88.73
2022-11-04T09:50:08.318Z,88.74
2022-11-04T09:52:43.087Z,88.82
2022-11-04T09:55:09.428Z,88.63
2022-11-04T09:57:35.892Z,88.63
2022-11-04T10:00:03.904Z,88.39
2022-11-04T10:02:50.768Z,88.09
2022-11-04T10:05:44.580Z,87.90
2022-11-04T10:08:43.928Z,87.67
2022-11-04T10:11:24.885Z,87.54
2022-11-04T10:13:51.377Z,87.32
2022-11-04T10:16:27.338Z,86.96
2022-11-04T10:19:02.778Z,86.92
2022-11-04T10:21:39.632Z,86.81
2022-11-04T10:24:15.140Z,86.87
2022-11-04T10:26:46.006Z,86.50
2022-11-04T10:29:17.383Z,86.39
2022-11-04T10:31:46.450Z,85.71
2022-11-04T10:34:26.563Z,85.32
2022-11-04T10:36:54.414Z,85.09
2022-11-04T10:39:30.563Z,85.27
2022-11-04T10:41:58.197Z,84.52
2022-11-04T10:44:30.125Z,84.26
2022-11-04T10:47:08.514Z,83.93
2022-11-04T10:50:26.415Z,83.26
2022-11-04T10:52:43.206Z,83.28
2022-11-04T10:55:27.848Z,82.90
2022-11-04T10:57:57.837Z,82.11
2022-11-04T11:00:41.319Z,81.60
2022-11-04T11:03:34.232Z,81.38
2022-11-04T11:06:12.033Z,81.47
2022-11-04T11:08:39.002Z,80.85
2022-11-04T11:11:06.817Z,80.57
2022-11-04T11:13:39.841Z,79.87
2022-11-04T11:16:27.897Z,79.14
2022-11-04T11:19:26.846Z,78.74
2022-11-04T11:21:56.695Z,78.63
2022-11-04T11:24:27.686Z,78.74
2022-11-04T11:26:57.365Z,78.52
2022-11-04T11:29:27.115Z,78.50
2022-11-04T11:31:55.884Z,78.22
2022-11-04T11:34:36.998Z,77.57
2022-11-04T11:37:05.098Z,77.00
2022-11-04T11:39:34.565Z,76.17
2022-11-04T11:42:12.908Z,76.22
2022-11-04T11:44:46.752Z,75.80
2022-11-04T11:47:36.815Z,75.04
2022-11-04T11:50:19.048Z,74.19
2022-11-04T11:52:49.279Z,74.15
2022-11-04T11:55:18.276Z,73.11
2022-11-04T12:00:59.133Z,73.00
2022-11-04T12:06:33.965Z,72.60
2022-11-04T12:09:24.433Z,72.21
2022-11-04T12:12:11.055Z,72.17
2022-11-04T12:14:58.975Z,71.69
2022-11-04T12:17:47.218Z,71.02
2022-11-04T12:20:37.999Z,71.05
2022-11-04T12:23:10.670Z,71.52
2022-11-04T12:25:48.677Z,71.54
2022-11-04T12:28:29.728Z,71.19
2022-11-04T12:31:18.683Z,70.99
2022-11-04T12:33:54.096Z,70.14
2022-11-04T12:36:53.525Z,69.66
2022-11-04T12:39:34.970Z,70.12
2022-11-04T12:42:32.809Z,69.85
2022-11-04T12:45:21.171Z,69.82
2022-11-04T12:47:47.736Z,70.07
2022-11-04T12:50:39.912Z,70.19
2022-11-04T12:53:18.196Z,69.69
2022-11-04T12:56:00.430Z,70.30
2022-11-04T12:58:26.949Z,70.29
2022-11-04T13:01:02.842Z,69.16
2022-11-04T13:03:53.315Z,68.35
2022-11-04T13:06:40.383Z,68.21
2022-11-04T13:09:32.879Z,68.12
2022-11-04T13:12:07.280Z,67.67
2022-11-04T13:14:44.223Z,67.88
2022-11-04T13:17:15.949Z,67.67
2022-11-04T13:19:59.030Z,68.28
2022-11-04T13:22:31.259Z,67.92
2022-11-04T13:25:14.743Z,67.87
2022-11-04T13:27:45.850Z,67.31
2022-11-04T13:30:23.497Z,68.17
2022-11-04T13:33:01.787Z,67.84
2022-11-04T13:35:44.373Z,67.84
2022-11-04T13:38:22.983Z,67.72
2022-11-04T13:41:11.234Z,67.19
2022-11-04T13:43:40.261Z,66.85
2022-11-04T13:46:17.901Z,67.03
2022-11-04T13:49:11.579Z,66.85
2022-11-04T13:51:40.136Z,67.16
2022-11-04T13:54:24.044Z,66.32
2022-11-04T13:56:50.760Z,66.59
2022-11-04T13:59:27.013Z,66.94
2022-11-04T14:02:11.715Z,66.59
2022-11-04T14:04:40.290Z,67.16
2022-11-04T14:07:10.697Z,67.39
2022-11-04T14:09:43.089Z,67.59
2022-11-04T14:12:18.584Z,67.22
2022-11-04T14:14:52.202Z,67.16
2022-11-04T14:17:33.890Z,66.83
2022-11-04T14:20:29.757Z,67.29
2022-11-04T14:22:58.539Z,67.68
2022-11-04T14:25:32.539Z,68.34
2022-11-04T14:28:01.953Z,69.51
2022-11-04T14:30:41.583Z,70.21
2022-11-04T14:33:22.857Z,71.49
2022-11-04T14:35:53.319Z,71.88
2022-11-04T14:38:28.324Z,72.61
2022-11-04T14:41:22.786Z,73.05
2022-11-04T14:43:50.012Z,73.26
2022-11-04T14:46:44.517Z,73.58
2022-11-04T14:49:29.677Z,74.41
2022-11-04T14:51:56.472Z,74.94
2022-11-04T14:54:26.286Z,75.61
2022-11-04T14:56:53.370Z,76.00
2022-11-04T14:59:23.866Z,76.16
2022-11-04T15:01:54.071Z,76.31
2022-11-04T15:04:29.503Z,76.14
2022-11-04T15:06:58.330Z,76.38
2022-11-04T15:09:30.046Z,76.61
2022-11-04T15:12:41.138Z,77.05
2022-11-04T15:15:27.192Z,77.32
2022-11-04T15:17:58.744Z,76.86
2022-11-04T15:20:26.110Z,77.15
2022-11-04T15:22:55.536Z,76.82
2022-11-04T15:25:22.063Z,77.55
2022-11-04T15:27:48.588Z,77.68
2022-11-04T15:30:25.013Z,78.14
2022-11-04T15:33:03.348Z,78.83
2022-11-04T15:35:33.137Z,78.91
2022-11-04T15:38:01.751Z,79.13
2022-11-04T15:40:30.358Z,79.46
2022-11-04T15:42:59.595Z,79.52
2022-11-04T15:45:37.875Z,79.68
2022-11-04T15:48:22.911Z,79.71
2022-11-04T15:50:54.834Z,79.81
2022-11-04T15:53:21.235Z,80.07
2022-11-04T15:55:47.979Z,80.19
2022-11-04T15:58:15.641Z,80.50
2022-11-04T16:00:51.629Z,80.81
2022-11-04T16:03:19.766Z,80.68
2022-11-04T16:06:03.733Z,80.87
2022-11-04T16:08:31.819Z,81.33
2022-11-04T16:11:19.321Z,81.10
2022-11-04T16:13:46.716Z,81.13
2022-11-04T16:16:21.158Z,81.25
2022-11-04T16:18:57.595Z,80.84
2022-11-04T16:21:30.587Z,81.24
2022-11-04T16:23:59.596Z,81.04
2022-11-04T16:26:37.427Z,81.35
2022-11-04T16:29:09.043Z,81.36
2022-11-04T16:31:37.317Z,81.40
2022-11-04T16:34:04.033Z,81.34
2022-11-04T16:36:35.382Z,81.74
2022-11-04T16:39:04.686Z,81.27
2022-11-04T16:41:38.569Z,81.45
2022-11-04T16:44:14.722Z,81.60
2022-11-04T16:46:41.361Z,81.86
2022-11-04T16:49:09.455Z,82.69
2022-11-04T16:51:35.837Z,82.54
2022-11-04T16:54:02.274Z,83.27
2022-11-04T16:56:28.652Z,83.56
2022-11-04T16:58:55.036Z,84.53
2022-11-04T17:01:21.556Z,84.88
2022-11-04T17:03:48.040Z,84.76
2022-11-04T17:06:14.891Z,85.22
2022-11-04T17:08:41.975Z,85.74
2022-11-04T17:11:09.945Z,85.95
2022-11-04T17:13:37.199Z,85.96
2022-11-04T17:16:05.369Z,86.46
2022-11-04T17:18:33.273Z,86.52
2022-11-04T17:21:02.359Z,85.93
2022-11-04T17:23:28.768Z,86.85
2022-11-04T17:25:55.158Z,86.44
2022-11-04T17:28:21.537Z,86.80
2022-11-04T17:30:48.130Z,87.20
2022-11-04T17:33:16.828Z,86.61
2022-11-04T17:35:48.253Z,86.30
2022-11-04T17:38:15.716Z,86.78
2022-11-04T17:41:01.129Z,87.01
2022-11-04T17:43:45.962Z,86.32
2022-11-04T17:46:32.473Z,86.49
2022-11-04T17:48:59.112Z,86.30
2022-11-04T17:51:25.629Z,86.65
2022-11-04T17:53:52.018Z,86.91
2022-11-04T17:56:21.208Z,86.37
2022-11-04T17:58:48.646Z,86.75
2022-11-04T18:01:17.088Z,86.97
2022-11-04T18:03:43.752Z,87.42
2022-11-04T18:06:10.508Z,87.12
2022-11-04T18:08:37.580Z,87.13
2022-11-04T18:11:08.563Z,87.31
2022-11-04T18:13:35.743Z,87.25
2022-11-04T18:16:12.454Z,87.99
2022-11-04T18:18:39.780Z,87.62
2022-11-04T18:21:08.300Z,87.93
2022-11-04T18:23:34.922Z,87.83
2022-11-04T18:26:02.879Z,87.77
2022-11-04T18:28:29.308Z,87.64
2022-11-04T18:30:55.692Z,87.44
2022-11-04T18:33:22.077Z,87.65
2022-11-04T18:35:48.469Z,87.64
2022-11-04T18:38:14.936Z,87.90
2022-11-04T18:40:41.384Z,88.01
2022-11-04T18:43:09.275Z,87.07
2022-11-04T18:45:36.422Z,86.62
2022-11-04T18:48:03.300Z,86.66
2022-11-04T18:50:30.143Z,86.65
2022-11-04T18:52:56.566Z,86.68
2022-11-04T18:55:23.935Z,86.38
2022-11-04T18:57:54.302Z,86.54
2022-11-04T19:00:21.175Z,86.69
2022-11-04T19:02:47.660Z,86.94
2022-11-04T19:05:14.175Z,87.30
2022-11-04T19:07:41.858Z,86.63
2022-11-04T19:10:08.607Z,86.76
2022-11-04T19:12:53.532Z,86.37
2022-11-04T19:15:20.033Z,87.45
2022-11-04T19:17:46.516Z,87.23
2022-11-04T19:20:13.355Z,87.28
2022-11-04T19:22:40.990Z,88.08
2022-11-04T19:25:08.319Z,87.68
2022-11-04T19:27:34.767Z,87.90
2022-11-04T19:30:01.237Z,87.90
2022-11-04T19:32:27.800Z,88.20
2022-11-04T19:34:54.199Z,88.61
2022-11-04T19:37:20.554Z,88.17
2022-11-04T19:39:46.948Z,88.38
2022-11-04T19:42:32.098Z,88.27
2022-11-04T19:44:58.471Z,88.81
2022-11-04T19:47:24.837Z,88.64
2022-11-04T19:49:51.350Z,88.25
2022-11-04T19:52:18.489Z,88.53
2022-11-04T19:54:44.922Z,88.04
2022-11-04T19:57:11.446Z,88.61
2022-11-04T19:59:37.886Z,87.66
2022-11-04T20:02:04.382Z,87.89
2022-11-04T20:04:30.882Z,87.43
2022-11-04T20:06:57.338Z,87.42
2022-11-04T20:09:25.942Z,87.30
2022-11-04T20:12:11.009Z,87.91
2022-11-04T20:14:37.410Z,87.95
2022-11-04T20:17:06.107Z,88.36
2022-11-04T20:19:32.641Z,87.83
2022-11-04T20:21:59.038Z,87.89
2022-11-04T20:24:25.508Z,87.86
2022-11-04T20:26:51.949Z,88.32
2022-11-04T20:29:18.391Z,87.74
2022-11-04T20:31:44.918Z,88.32
2022-11-04T20:34:13.527Z,88.11
2022-11-04T20:36:40.807Z,88.45
2022-11-04T20:39:14.544Z,88.62
2022-11-04T20:41:41.767Z,88.59
2022-11-04T20:44:10.552Z,88.45
2022-11-04T20:46:37.136Z,89.06
2022-11-04T20:49:03.968Z,88.65
2022-11-04T20:51:33.122Z,88.82
2022-11-04T20:54:01.982Z,88.55
2022-11-04T20:56:33.563Z,88.57
2022-11-04T20:59:01.230Z,88.68
2022-11-04T21:01:33.380Z,89.17
2022-11-04T21:04:02.906Z,89.25
2022-11-04T21:06:30.410Z,89.31
2022-11-04T21:09:00.483Z,89.04
2022-11-04T21:11:31.683Z,89.21
2022-11-04T21:13:59.104Z,88.56
2022-11-04T21:16:25.479Z,88.46
2022-11-04T21:18:51.894Z,88.85
2022-11-04T21:21:18.340Z,88.71
2022-11-04T21:23:46.604Z,88.88
2022-11-04T21:26:21.968Z,88.29
2022-11-04T21:28:52.539Z,88.74
2022-11-04T21:31:18.891Z,88.86
2022-11-04T21:33:45.215Z,88.67
2022-11-04T21:36:14.917Z,88.53
2022-11-04T21:38:42.444Z,88.69
2022-11-04T21:41:12.960Z,88.24
2022-11-04T21:43:39.843Z,88.04
2022-11-04T21:46:14.081Z,88.95
2022-11-04T21:48:42.041Z,89.10
2022-11-04T21:51:13.990Z,88.18
2022-11-04T21:53:41.171Z,88.44
2022-11-04T21:56:17.111Z,88.42
2022-11-04T21:58:43.630Z,88.72
2022-11-04T22:01:12.313Z,87.97
2022-11-04T22:03:38.736Z,87.69
2022-11-04T22:06:07.934Z,87.96
2022-11-04T22:08:34.437Z,87.64
2022-11-04T22:11:10.332Z,87.77
2022-11-04T22:13:36.739Z,88.26
2022-11-04T22:16:19.301Z,88.38
2022-11-04T22:18:46.656Z,88.56
2022-11-04T22:21:17.059Z,89.57
2022-11-04T22:23:44.731Z,89.21
2022-11-04T22:26:17.462Z,88.81
2022-11-04T22:28:44.315Z,89.09
2022-11-04T22:31:19.876Z,89.02
2022-11-04T22:33:46.314Z,90.02
2022-11-04T22:36:13.832Z,89.96
2022-11-04T22:38:41.690Z,89.21
2022-11-04T22:41:11.231Z,89.71
2022-11-04T22:43:38.219Z,89.42
2022-11-04T22:46:16.674Z,89.87
2022-11-04T22:48:43.125Z,89.53
2022-11-04T22:51:09.882Z,89.57
2022-11-04T22:53:36.966Z,90.29
2022-11-04T22:56:05.124Z,90.12
2022-11-04T22:58:31.576Z,90.27
2022-11-04T23:01:02.034Z,90.95
2022-11-04T23:03:28.809Z,90.78
2022-11-04T23:05:57.694Z,91.23
2022-11-04T23:08:25.304Z,91.81
2022-11-04T23:11:15.623Z,91.61
2022-11-04T23:14:20.451Z,92.45
2022-11-04T23:17:08.513Z,92.96
2022-11-04T23:19:35.590Z,92.01
2022-11-04T23:22:20.594Z,93.21
2022-11-04T23:25:25.331Z,92.70
2022-11-04T23:28:12.792Z,92.97
2022-11-04T23:30:45.605Z,93.15
2022-11-04T23:33:14.932Z,92.83
2022-11-04T23:36:01.632Z,92.92
2022-11-04T23:38:31.205Z,93.25
2022-11-04T23:41:26.077Z,93.26
2022-11-04T23:43:52.609Z,93.65
2022-11-04T23:46:42.622Z,93.58
2022-11-04T23:49:31.239Z,93.43
2022-11-04T23:52:16.905Z,93.04
2022-11-04T23:55:01.608Z,93.05
2022-11-04T23:57:46.395Z,93.34
